createdAt,value
2022-11-21T00:01:28.187Z,101857.38
2022-11-21T00:03:58.360Z,101858.19
2022-11-21T00:06:28.522Z,101864.31
2022-11-21T00:08:58.654Z,101858.34
2022-11-21T00:11:28.577Z,101891.47
2022-11-21T00:13:58.487Z,101869.34
2022-11-21T00:16:28.438Z,101873.50
2022-11-21T00:19:00.339Z,101876.78
2022-11-21T00:21:30.843Z,101887.88
2022-11-21T00:24:00.735Z,101887.44
2022-11-21T00:26:30.657Z,101884.56
2022-11-21T00:29:00.607Z,101892.88
2022-11-21T00:31:30.529Z,101892.56
2022-11-21T00:34:00.560Z,101886.06
2022-11-21T00:36:30.456Z,101916.03
2022-11-21T00:39:01.388Z,101900.75
2022-11-21T00:41:31.342Z,101910.59
2022-11-21T00:44:01.492Z,101908.41
2022-11-21T00:46:31.427Z,101913.03
2022-11-21T00:49:01.401Z,101912.47
2022-11-21T00:51:33.878Z,101905.25
2022-11-21T00:54:03.940Z,101933.47
2022-11-21T00:56:33.889Z,101924.31
2022-11-21T00:59:03.940Z,101925.69
2022-11-21T01:01:33.900Z,101929.66
2022-11-21T01:04:03.816Z,101923.13
2022-11-21T01:06:34.829Z,101917.31
2022-11-21T01:09:05.808Z,101925.53
2022-11-21T01:11:36.108Z,101923.19
2022-11-21T01:14:06.297Z,101924.47
2022-11-21T01:16:37.607Z,101920.44
2022-11-21T01:19:07.572Z,101936.41
2022-11-21T01:21:37.489Z,101930.66
2022-11-21T01:24:07.718Z,101944.19
2022-11-21T01:26:40.364Z,101966.31
2022-11-21T01:29:10.462Z,101933.50
2022-11-21T01:31:39.873Z,101940.75
2022-11-21T01:34:09.771Z,101936.97
2022-11-21T01:36:39.677Z,101946.09
2022-11-21T01:39:10.927Z,101949.09
2022-11-21T01:41:44.219Z,101943.44
2022-11-21T01:45:07.495Z,101948.13
2022-11-21T01:47:37.774Z,101960.75
2022-11-21T01:50:12.800Z,101954.88
2022-11-21T01:52:43.039Z,101949.94
2022-11-21T01:55:14.798Z,101978.41
2022-11-21T01:57:49.396Z,101954.19
2022-11-21T02:00:26.635Z,101958.69
2022-11-21T02:03:02.025Z,101955.41
2022-11-21T02:05:35.554Z,101960.94
2022-11-21T02:08:11.620Z,101958.69
2022-11-21T02:10:49.638Z,101958.94
2022-11-21T02:13:19.619Z,101953.16
2022-11-21T02:15:49.843Z,101950.03
2022-11-21T02:18:20.807Z,101954.69
2022-11-21T02:20:59.845Z,101957.88
2022-11-21T02:23:47.559Z,101954.47
2022-11-21T02:26:17.575Z,101949.59
2022-11-21T02:28:47.743Z,101948.97
2022-11-21T02:31:17.636Z,101950.25
2022-11-21T02:33:47.270Z,101950.34
2022-11-21T02:36:35.234Z,101943.72
2022-11-21T02:39:07.190Z,101973.06
2022-11-21T02:41:39.918Z,101933.31
2022-11-21T02:44:35.761Z,101939.66
2022-11-21T02:47:05.850Z,101938.31
2022-11-21T02:50:09.312Z,101949.16
2022-11-21T02:52:40.176Z,101944.19
2022-11-21T02:55:12.823Z,101938.63
2022-11-21T02:57:43.131Z,101924.09
2022-11-21T03:00:15.324Z,101931.47
2022-11-21T03:02:45.677Z,101941.69
2022-11-21T03:05:20.360Z,101923.72
2022-11-21T03:07:50.965Z,101940.88
2022-11-21T03:10:22.111Z,101947.41
2022-11-21T03:12:52.468Z,101917.50
2022-11-21T03:15:22.351Z,101917.03
2022-11-21T03:17:52.274Z,101915.03
2022-11-21T03:20:22.724Z,101899.84
2022-11-21T03:22:55.611Z,101897.63
2022-11-21T03:25:26.862Z,101894.69
2022-11-21T03:27:58.418Z,101876.03
2022-11-21T03:30:29.211Z,101873.88
2022-11-21T03:32:59.758Z,101872.72
2022-11-21T03:38:31.497Z,101866.88
2022-11-21T03:41:07.038Z,101850.75
2022-11-21T03:43:38.036Z,101855.03
2022-11-21T03:46:08.079Z,101846.81
2022-11-21T03:48:37.993Z,101849.22
2022-11-21T03:51:08.779Z,101833.03
2022-11-21T03:53:39.895Z,101856.44
2022-11-21T03:56:10.021Z,101865.06
2022-11-21T03:58:41.604Z,101828.56
2022-11-21T04:01:12.979Z,101822.94
2022-11-21T04:03:45.610Z,101823.44
2022-11-21T04:06:19.488Z,101821.53
2022-11-21T04:08:52.323Z,101825.81
2022-11-21T04:11:25.740Z,101836.25
2022-11-21T04:13:57.116Z,101814.09
2022-11-21T04:16:27.256Z,101813.84
2022-11-21T04:18:58.673Z,101818.91
2022-11-21T04:21:30.389Z,101809.19
2022-11-21T04:24:01.804Z,101810.88
2022-11-21T04:26:31.935Z,101804.66
2022-11-21T04:29:02.902Z,101825.28
2022-11-21T04:31:33.386Z,101813.41
2022-11-21T04:34:04.818Z,101822.66
2022-11-21T04:36:35.819Z,101792.34
2022-11-21T04:39:09.526Z,101819.44
2022-11-21T04:41:39.730Z,101791.84
2022-11-21T04:44:10.775Z,101794.25
2022-11-21T04:46:41.328Z,101774.31
2022-11-21T04:49:12.759Z,101777.44
2022-11-21T04:51:43.617Z,101770.97
2022-11-21T04:54:15.127Z,101783.94
2022-11-21T04:56:46.481Z,101774.94
2022-11-21T04:59:17.092Z,101800.13
2022-11-21T05:01:47.497Z,101773.59
2022-11-21T05:04:18.568Z,101765.19
2022-11-21T05:06:49.430Z,101792.34
2022-11-21T05:09:20.367Z,101749.34
2022-11-21T05:12:08.571Z,101749.97
2022-11-21T05:14:39.738Z,101778.19
2022-11-21T05:17:11.215Z,101755.97
2022-11-21T05:19:43.073Z,101758.59
2022-11-21T05:22:14.681Z,101800.25
2022-11-21T05:24:47.273Z,101759.69
2022-11-21T05:27:20.165Z,101744.56
2022-11-21T05:29:52.971Z,101771.94
2022-11-21T05:32:24.498Z,101748.03
2022-11-21T05:34:57.689Z,101743.72
2022-11-21T05:37:30.060Z,101742.75
2022-11-21T05:40:02.313Z,101759.56
2022-11-21T05:42:51.305Z,101757.66
2022-11-21T05:45:21.766Z,101738.22
2022-11-21T05:47:53.957Z,101736.53
2022-11-21T05:50:24.348Z,101741.44
2022-11-21T05:52:55.918Z,101730.75
2022-11-21T05:55:27.368Z,101727.13
2022-11-21T05:58:00.068Z,101735.78
2022-11-21T06:00:33.603Z,101754.25
2022-11-21T06:03:23.358Z,101736.03
2022-11-21T06:05:55.755Z,101719.09
2022-11-21T06:08:26.570Z,101729.78
2022-11-21T06:10:57.620Z,101712.28
2022-11-21T06:13:30.723Z,101707.00
2022-11-21T06:16:05.568Z,101690.28
2022-11-21T06:18:42.474Z,101700.97
2022-11-21T06:21:19.508Z,101690.16
2022-11-21T06:23:55.172Z,101677.19
2022-11-21T06:26:33.709Z,101685.25
2022-11-21T06:29:13.064Z,101673.72
2022-11-21T06:31:52.384Z,101690.78
2022-11-21T06:34:23.926Z,101732.34
2022-11-21T06:36:55.907Z,101675.78
2022-11-21T06:39:36.608Z,101676.72
2022-11-21T06:42:14.989Z,101677.47
2022-11-21T06:44:46.473Z,101666.06
2022-11-21T06:47:30.721Z,101645.03
2022-11-21T06:50:15.858Z,101651.63
2022-11-21T06:52:46.928Z,101641.06
2022-11-21T06:55:18.848Z,101635.22
2022-11-21T06:57:49.266Z,101642.66
2022-11-21T07:00:21.140Z,101636.91
2022-11-21T07:02:51.700Z,101648.81
2022-11-21T07:05:21.861Z,101641.88
2022-11-21T07:07:53.549Z,101651.97
2022-11-21T07:10:23.987Z,101653.88
2022-11-21T07:13:12.911Z,101661.19
2022-11-21T07:15:43.460Z,101665.88
2022-11-21T07:18:14.656Z,101667.81
2022-11-21T07:20:45.793Z,101652.34
2022-11-21T07:23:17.486Z,101660.13
2022-11-21T07:25:48.145Z,101670.09
2022-11-21T07:28:18.681Z,101680.06
2022-11-21T07:30:49.391Z,101694.44
2022-11-21T07:33:19.184Z,101688.56
2022-11-21T07:35:49.150Z,101707.50
2022-11-21T07:38:19.433Z,101708.38
2022-11-21T07:40:49.595Z,101708.59
2022-11-21T07:43:20.345Z,101711.75
2022-11-21T07:45:52.408Z,101694.22
2022-11-21T07:48:22.723Z,101693.63
2022-11-21T07:50:53.761Z,101691.31
2022-11-21T07:53:23.914Z,101704.63
2022-11-21T07:55:54.770Z,101716.38
2022-11-21T07:58:24.825Z,101721.88
2022-11-21T08:00:55.120Z,101698.41
2022-11-21T08:03:26.612Z,101705.72
2022-11-21T08:05:57.274Z,101701.72
2022-11-21T08:08:29.119Z,101703.88
2022-11-21T08:11:00.407Z,101727.09
2022-11-21T08:13:31.971Z,101701.94
2022-11-21T08:16:06.368Z,101699.66
2022-11-21T08:18:36.959Z,101700.97
2022-11-21T08:21:07.993Z,101705.00
2022-11-21T08:23:38.574Z,101715.31
2022-11-21T08:26:13.221Z,101700.66
2022-11-21T08:28:44.337Z,101691.44
2022-11-21T08:31:15.411Z,101693.66
2022-11-21T08:33:45.456Z,101727.41
2022-11-21T08:36:15.461Z,101704.91
2022-11-21T08:38:45.396Z,101692.16
2022-11-21T08:41:33.462Z,101700.53
2022-11-21T08:44:03.656Z,101701.81
2022-11-21T08:46:35.034Z,101697.72
2022-11-21T08:49:08.338Z,101705.94
2022-11-21T08:51:38.688Z,101699.31
2022-11-21T08:54:12.136Z,101705.84
2022-11-21T08:56:42.146Z,101704.41
2022-11-21T08:59:12.249Z,101698.63
2022-11-21T09:01:42.317Z,101721.78
2022-11-21T09:04:12.934Z,101698.47
2022-11-21T09:06:42.989Z,101708.47
2022-11-21T09:09:13.033Z,101704.34
2022-11-21T09:11:42.973Z,101697.00
2022-11-21T09:14:31.118Z,101704.19
2022-11-21T09:17:20.096Z,101706.09
2022-11-21T09:19:50.351Z,101714.38
2022-11-21T09:22:20.452Z,101711.97
2022-11-21T09:24:50.444Z,101717.56
2022-11-21T09:27:20.386Z,101733.53
2022-11-21T09:29:54.251Z,101730.38
2022-11-21T09:32:25.295Z,101730.50
2022-11-21T09:34:56.749Z,101729.13
2022-11-21T09:37:27.070Z,101732.16
2022-11-21T09:39:57.702Z,101740.19
2022-11-21T09:42:54.623Z,101732.59
2022-11-21T09:45:24.725Z,101727.63
2022-11-21T09:47:56.559Z,101738.50
2022-11-21T09:50:45.393Z,101732.59
2022-11-21T09:53:38.660Z,101740.78
2022-11-21T09:56:21.293Z,101741.84
2022-11-21T09:59:26.824Z,101779.66
2022-11-21T10:01:57.758Z,101752.94
2022-11-21T10:04:29.566Z,101763.25
2022-11-21T10:07:33.938Z,101770.41
2022-11-21T10:10:39.525Z,101773.97
2022-11-21T10:13:29.187Z,101776.78
2022-11-21T10:16:43.021Z,101769.13
2022-11-21T10:19:22.021Z,101772.88
2022-11-21T10:22:17.521Z,101775.81
2022-11-21T10:25:28.813Z,101772.34
2022-11-21T10:28:18.911Z,101783.81
2022-11-21T10:30:53.599Z,101819.09
2022-11-21T10:33:34.280Z,101811.09
2022-11-21T10:36:15.603Z,101810.34
2022-11-21T10:38:47.206Z,101820.13
2022-11-21T10:41:22.893Z,101805.31
2022-11-21T10:44:33.084Z,101838.78
2022-11-21T10:47:04.841Z,101822.41
2022-11-21T10:49:37.304Z,101806.00
2022-11-21T10:52:12.890Z,101811.66
2022-11-21T10:55:15.882Z,101814.47
2022-11-21T10:57:50.165Z,101812.03
2022-11-21T11:00:30.750Z,101821.06
2022-11-21T11:03:18.496Z,101824.72
2022-11-21T11:06:02.144Z,101817.88
2022-11-21T11:08:54.818Z,101816.22
2022-11-21T11:11:28.654Z,101827.63
2022-11-21T11:14:01.212Z,101825.00
2022-11-21T11:16:38.566Z,101826.88
2022-11-21T11:19:17.760Z,101829.50
2022-11-21T11:21:49.591Z,101834.84
2022-11-21T11:24:21.512Z,101835.03
2022-11-21T11:26:57.877Z,101865.06
2022-11-21T11:29:38.046Z,101837.84
2022-11-21T11:32:20.875Z,101838.91
2022-11-21T11:35:02.271Z,101839.91
2022-11-21T11:37:44.422Z,101923.44
2022-11-21T11:40:29.161Z,101840.22
2022-11-21T11:43:58.102Z,101840.41
2022-11-21T11:46:57.234Z,101836.28
2022-11-21T11:50:00.864Z,101839.75
2022-11-21T11:52:56.763Z,101840.41
2022-11-21T11:55:35.426Z,101857.94
2022-11-21T11:58:16.440Z,101839.94
2022-11-21T12:01:17.058Z,101848.09
2022-11-21T12:04:00.871Z,101840.31
2022-11-21T12:07:41.243Z,101839.84
2022-11-21T12:09:39.403Z,101841.41
2022-11-21T12:12:28.279Z,101852.63
2022-11-21T12:15:38.468Z,101849.97
2022-11-21T12:18:23.615Z,101850.03
2022-11-21T12:20:59.067Z,101842.88
2022-11-21T12:23:53.867Z,101847.06
2022-11-21T12:26:37.476Z,101848.78
2022-11-21T12:29:27.416Z,101861.38
2022-11-21T12:32:11.442Z,101854.03
2022-11-21T12:35:06.526Z,101852.78
2022-11-21T12:37:56.255Z,101856.75
2022-11-21T12:41:32.657Z,101876.34
2022-11-21T12:44:24.197Z,101870.75
2022-11-21T12:46:57.272Z,101860.66
2022-11-21T12:50:22.544Z,101858.34
2022-11-21T12:53:14.661Z,101862.91
2022-11-21T12:55:44.483Z,101872.53
2022-11-21T12:58:34.018Z,101875.97
2022-11-21T13:01:32.733Z,101874.03
2022-11-21T13:04:08.266Z,101871.28
2022-11-21T13:06:50.338Z,101878.00
2022-11-21T13:09:24.163Z,101878.63
2022-11-21T13:12:19.985Z,101876.75
2022-11-21T13:15:10.776Z,101876.66
2022-11-21T13:17:58.908Z,101886.31
2022-11-21T13:20:42.550Z,101889.84
2022-11-21T13:23:47.160Z,101896.03
2022-11-21T13:26:31.417Z,101897.81
2022-11-21T13:29:12.374Z,101897.00
2022-11-21T13:31:43.871Z,101893.56
2022-11-21T13:34:49.573Z,101898.03
2022-11-21T13:37:51.450Z,101904.38
2022-11-21T13:40:33.280Z,101910.84
2022-11-21T13:43:33.189Z,101909.47
2022-11-21T13:46:04.453Z,101911.66
2022-11-21T13:48:47.149Z,101919.81
2022-11-21T13:51:36.751Z,101921.06
2022-11-21T13:54:29.297Z,101917.06
2022-11-21T13:57:23.510Z,101926.38
2022-11-21T14:00:20.209Z,101926.38
2022-11-21T14:03:32.696Z,101934.06
2022-11-21T14:06:16.376Z,101928.75
2022-11-21T14:09:10.039Z,101935.66
2022-11-21T14:11:56.137Z,101940.75
2022-11-21T14:14:41.708Z,101927.66
2022-11-21T14:17:34.259Z,101939.84
2022-11-21T14:20:27.656Z,101931.97
2022-11-21T14:23:05.287Z,101933.56
2022-11-21T14:25:43.281Z,101936.97
2022-11-21T14:28:41.549Z,101923.81
2022-11-21T14:31:16.116Z,101923.72
2022-11-21T14:33:50.649Z,101960.34
2022-11-21T14:36:33.204Z,101929.78
2022-11-21T14:42:12.602Z,101932.47
2022-11-21T14:44:44.208Z,101932.00
2022-11-21T14:47:25.925Z,101927.88
2022-11-21T14:50:07.088Z,101919.41
2022-11-21T14:52:45.241Z,101917.00
2022-11-21T14:55:32.370Z,101919.72
2022-11-21T14:58:06.153Z,101918.19
2022-11-21T15:00:58.492Z,101916.19
2022-11-21T15:03:27.428Z,101921.41
2022-11-21T15:06:12.620Z,101916.31
2022-11-21T15:11:47.202Z,101905.09
2022-11-21T15:14:27.645Z,101908.56
2022-11-21T15:17:00.612Z,101926.03
2022-11-21T15:19:33.748Z,101917.41
2022-11-21T15:22:06.074Z,101933.19
2022-11-21T15:24:41.323Z,101932.47
2022-11-21T15:27:30.829Z,101932.47
2022-11-21T15:30:16.253Z,101934.00
2022-11-21T15:33:10.016Z,101938.25
2022-11-21T15:35:50.238Z,101946.78
2022-11-21T15:38:45.204Z,101944.19
2022-11-21T15:41:15.835Z,101935.72
2022-11-21T15:43:48.332Z,101936.69
2022-11-21T15:46:24.613Z,101945.00
2022-11-21T15:48:57.138Z,101935.53
2022-11-21T15:51:59.742Z,101942.69
2022-11-21T15:54:25.686Z,101944.66
2022-11-21T15:56:56.127Z,101947.53
2022-11-21T15:59:26.792Z,101946.38
2022-11-21T16:01:59.559Z,101937.44
2022-11-21T16:04:30.027Z,101939.00
2022-11-21T16:07:00.507Z,101934.22
2022-11-21T16:09:31.185Z,101936.56
2022-11-21T16:12:01.796Z,101940.69
2022-11-21T16:14:32.428Z,101941.38
2022-11-21T16:17:02.706Z,101986.69
2022-11-21T16:19:33.297Z,101949.84
2022-11-21T16:22:05.162Z,101966.28
2022-11-21T16:24:36.413Z,101960.84
2022-11-21T16:27:06.858Z,101949.38
2022-11-21T16:29:37.674Z,101950.91
2022-11-21T16:32:08.184Z,101947.28
2022-11-21T16:34:38.578Z,101941.06
2022-11-21T16:37:09.431Z,101943.44
2022-11-21T16:39:39.728Z,101934.69
2022-11-21T16:42:13.095Z,101944.31
2022-11-21T16:44:44.453Z,101938.53
2022-11-21T16:47:16.440Z,101942.25
2022-11-21T16:49:51.547Z,101940.75
2022-11-21T16:52:21.842Z,101927.00
2022-11-21T16:54:52.288Z,101939.38
2022-11-21T16:57:22.579Z,101942.06
2022-11-21T16:59:52.841Z,101948.09
2022-11-21T17:02:23.063Z,101940.00
2022-11-21T17:04:53.592Z,101940.63
2022-11-21T17:07:23.624Z,101936.06
2022-11-21T17:09:54.063Z,101934.91
2022-11-21T17:12:24.640Z,101925.19
2022-11-21T17:14:54.919Z,101932.91
2022-11-21T17:17:25.534Z,101930.06
2022-11-21T17:19:55.921Z,101920.28
2022-11-21T17:22:27.184Z,101910.66
2022-11-21T17:24:57.820Z,101919.09
2022-11-21T17:27:28.023Z,101918.19
2022-11-21T17:29:58.642Z,101919.78
2022-11-21T17:32:29.507Z,101914.56
2022-11-21T17:35:00.690Z,101916.31
2022-11-21T17:37:30.834Z,101909.31
2022-11-21T17:40:00.867Z,101925.97
2022-11-21T17:42:30.879Z,101919.03
2022-11-21T17:45:01.881Z,101927.03
2022-11-21T17:47:36.332Z,101923.72
2022-11-21T17:50:08.154Z,101932.75
2022-11-21T17:52:37.803Z,101927.59
2022-11-21T17:55:08.271Z,101922.59
2022-11-21T17:57:38.443Z,101919.22
2022-11-21T18:00:09.280Z,101915.69
2022-11-21T18:02:40.543Z,101926.06
2022-11-21T18:05:11.134Z,101911.97
2022-11-21T18:07:41.360Z,101911.91
2022-11-21T18:10:40.679Z,101905.66
2022-11-21T18:13:01.771Z,101895.97
2022-11-21T18:15:31.782Z,101889.72
2022-11-21T18:18:02.221Z,101895.03
2022-11-21T18:20:32.832Z,101886.19
2022-11-21T18:23:02.738Z,101886.09
2022-11-21T18:25:32.642Z,101878.34
2022-11-21T18:28:02.614Z,101873.88
2022-11-21T18:30:33.411Z,101878.25
2022-11-21T18:33:05.560Z,101873.94
2022-11-21T18:35:35.065Z,101873.94
2022-11-21T18:38:05.116Z,101872.25
2022-11-21T18:40:35.042Z,101868.72
2022-11-21T18:43:05.185Z,101870.50
2022-11-21T18:45:35.126Z,101862.94
2022-11-21T18:48:04.409Z,101864.06
2022-11-21T18:50:35.703Z,101865.22
2022-11-21T18:53:05.961Z,101864.63
2022-11-21T18:55:39.612Z,101857.84
2022-11-21T18:58:09.675Z,101857.16
2022-11-21T19:00:39.576Z,101886.19
2022-11-21T19:03:09.471Z,101853.78
2022-11-21T19:05:43.701Z,101858.19
2022-11-21T19:08:14.302Z,101849.25
2022-11-21T19:10:44.557Z,101854.31
2022-11-21T19:13:14.577Z,101853.31
2022-11-21T19:15:45.654Z,101847.91
2022-11-21T19:18:15.980Z,101842.44
2022-11-21T19:20:46.670Z,101836.13
2022-11-21T19:23:16.683Z,101838.56
2022-11-21T19:25:46.625Z,101828.88
2022-11-21T19:28:16.511Z,101825.34
2022-11-21T19:30:46.425Z,101818.31
2022-11-21T19:33:16.321Z,101860.19
2022-11-21T19:35:46.658Z,101812.94
2022-11-21T19:38:16.643Z,101805.00
2022-11-21T19:41:06.812Z,101791.94
2022-11-21T19:43:37.452Z,101800.53
2022-11-21T19:46:08.679Z,101791.75
2022-11-21T19:48:39.656Z,101791.94
2022-11-21T19:51:10.458Z,101793.88
2022-11-21T19:53:40.688Z,101791.34
2022-11-21T19:56:19.521Z,101786.25
2022-11-21T19:58:51.471Z,101785.44
2022-11-21T20:01:24.288Z,101774.22
2022-11-21T20:04:01.667Z,101822.13
2022-11-21T20:06:35.516Z,101772.00
2022-11-21T20:09:13.925Z,101768.13
2022-11-21T20:11:46.643Z,101766.00
2022-11-21T20:14:21.906Z,101764.81
2022-11-21T20:16:54.334Z,101764.56
2022-11-21T20:19:26.397Z,101761.72
2022-11-21T20:21:56.759Z,101765.00
2022-11-21T20:24:26.887Z,101788.34
2022-11-21T20:26:57.327Z,101766.34
2022-11-21T20:29:27.484Z,101760.06
2022-11-21T20:32:00.320Z,101757.19
2022-11-21T20:34:30.894Z,101773.66
2022-11-21T20:37:02.078Z,101743.75
2022-11-21T20:39:32.838Z,101752.19
2022-11-21T20:42:03.120Z,101748.47
2022-11-21T20:47:23.989Z,101752.41
2022-11-21T20:49:54.420Z,101757.75
2022-11-21T20:55:14.667Z,101747.09
2022-11-21T20:57:44.803Z,101747.31
2022-11-21T21:00:15.278Z,101750.09
2022-11-21T21:02:45.291Z,101749.34
2022-11-21T21:05:15.406Z,101779.81
2022-11-21T21:07:45.499Z,101752.53
2022-11-21T21:10:15.541Z,101758.09
2022-11-21T21:12:48.591Z,101758.56
2022-11-21T21:15:18.958Z,101761.69
2022-11-21T21:17:49.075Z,101775.44
2022-11-21T21:20:19.153Z,101749.09
2022-11-21T21:22:49.229Z,101765.63
2022-11-21T21:25:19.210Z,101744.50
2022-11-21T21:27:53.220Z,101765.38
2022-11-21T21:30:24.557Z,101739.94
2022-11-21T21:32:54.636Z,101745.25
2022-11-21T21:35:25.789Z,101738.16
2022-11-21T21:37:55.810Z,101746.66
2022-11-21T21:40:25.722Z,101741.25
2022-11-21T21:42:55.664Z,101744.63
2022-11-21T21:45:25.574Z,101736.66
2022-11-21T21:47:56.428Z,101733.97
2022-11-21T21:50:26.392Z,101728.81
2022-11-21T21:52:56.306Z,101736.00
2022-11-21T21:55:26.441Z,101730.28
2022-11-21T21:57:57.926Z,101739.34
2022-11-21T22:00:27.891Z,101736.16
2022-11-21T22:02:57.798Z,101741.75
2022-11-21T22:05:27.058Z,101735.75
2022-11-21T22:07:56.934Z,101736.50
2022-11-21T22:10:26.993Z,101740.66
2022-11-21T22:12:56.883Z,101743.84
2022-11-21T22:15:26.808Z,101741.81
2022-11-21T22:17:58.925Z,101779.97
2022-11-21T22:20:30.070Z,101744.78
2022-11-21T22:23:01.497Z,101755.94
2022-11-21T22:25:32.773Z,101781.13
2022-11-21T22:28:03.278Z,101766.06
2022-11-21T22:30:33.595Z,101759.88
2022-11-21T22:33:04.391Z,101767.72
2022-11-21T22:35:36.588Z,101779.16
2022-11-21T22:38:07.091Z,101757.25
2022-11-21T22:40:37.196Z,101756.41
2022-11-21T22:43:08.196Z,101759.78
2022-11-21T22:45:40.655Z,101768.59
2022-11-21T22:48:11.043Z,101758.13
2022-11-21T22:50:46.776Z,101813.91
2022-11-21T22:53:18.068Z,101760.91
2022-11-21T22:55:57.738Z,101765.56
2022-11-21T22:58:31.631Z,101759.19
2022-11-21T23:01:07.091Z,101779.56
2022-11-21T23:03:38.417Z,101774.63
2022-11-21T23:06:11.436Z,101774.69
2022-11-21T23:08:42.809Z,101770.47
2022-11-21T23:11:14.853Z,101768.25
2022-11-21T23:13:47.587Z,101776.78
2022-11-21T23:16:20.071Z,101797.38
2022-11-21T23:18:53.619Z,101791.88
2022-11-21T23:21:24.351Z,101784.66
2022-11-21T23:23:55.041Z,101812.38
2022-11-21T23:26:25.625Z,101783.38
2022-11-21T23:28:56.387Z,101783.09
2022-11-21T23:31:27.048Z,101782.06
2022-11-21T23:33:57.385Z,101810.16
2022-11-21T23:36:27.474Z,101790.78
2022-11-21T23:38:58.443Z,101783.78
2022-11-21T23:41:29.003Z,101782.28
2022-11-21T23:43:58.482Z,101775.06
2022-11-21T23:46:29.974Z,101775.91
2022-11-21T23:49:00.031Z,101805.66
2022-11-21T23:51:30.990Z,101799.31
2022-11-21T23:54:01.030Z,101793.28
2022-11-21T23:56:31.130Z,101796.78
2022-11-21T23:59:01.149Z,101788.84
